createdAt,value
2023-02-04T00:02:31.870Z,100951.38
2023-02-04T00:07:34.664Z,100959.09
2023-02-04T00:12:38.806Z,100965.44
2023-02-04T00:17:41.586Z,100979.59
2023-02-04T00:22:44.367Z,101008.22
2023-02-04T00:27:48.481Z,101036.88
2023-02-04T00:32:54.674Z,101037.75
2023-02-04T00:37:57.536Z,101056.53
2023-02-04T00:43:03.366Z,101079.75
2023-02-04T00:48:06.446Z,101085.31
2023-02-04T00:53:09.881Z,101115.69
2023-02-04T00:58:13.977Z,101130.97
2023-02-04T01:03:17.163Z,101147.19
2023-02-04T01:08:19.950Z,101165.13
2023-02-04T01:13:24.154Z,101191.00
2023-02-04T01:18:27.065Z,101212.38
2023-02-04T01:23:29.841Z,101210.66
2023-02-04T01:28:34.029Z,101228.72
2023-02-04T01:33:36.824Z,101259.88
2023-02-04T01:38:39.637Z,101271.69
2023-02-04T01:43:43.840Z,101279.06
2023-02-04T01:48:47.906Z,101290.69
2023-02-04T01:53:50.744Z,101302.38
2023-02-04T01:58:55.745Z,101329.34
2023-02-04T02:03:58.479Z,101354.25
2023-02-04T02:09:01.364Z,101367.00
2023-02-04T02:14:06.008Z,101375.06
2023-02-04T02:19:08.991Z,101389.44
2023-02-04T02:24:26.014Z,101404.59
2023-02-04T02:29:29.357Z,101411.69
2023-02-04T02:34:32.205Z,101422.44
2023-02-04T02:39:36.368Z,101419.84
2023-02-04T02:44:39.123Z,101446.81
2023-02-04T02:49:42.432Z,101461.19
2023-02-04T02:54:46.576Z,101476.34
2023-02-04T02:59:51.286Z,101488.91
2023-02-04T03:04:55.220Z,101493.69
2023-02-04T03:10:02.842Z,101511.44
2023-02-04T03:15:06.239Z,101533.13
2023-02-04T03:20:09.911Z,101547.47
2023-02-04T03:25:16.634Z,101560.88
2023-02-04T03:30:19.488Z,101577.81
2023-02-04T03:35:22.230Z,101587.59
2023-02-04T03:40:26.308Z,101594.88
2023-02-04T03:45:37.475Z,101614.69
2023-02-04T03:50:46.729Z,101632.53
2023-02-04T03:55:50.959Z,101628.03
2023-02-04T04:00:53.715Z,101658.41
2023-02-04T04:05:56.466Z,101663.13
2023-02-04T04:11:00.578Z,101672.22
2023-02-04T04:16:04.880Z,101680.09
2023-02-04T04:21:07.694Z,101686.50
2023-02-04T04:26:11.799Z,101708.75
2023-02-04T04:31:14.904Z,101729.56
2023-02-04T04:36:17.787Z,101737.53
2023-02-04T04:41:22.000Z,101748.25
2023-02-04T04:46:25.211Z,101759.88
2023-02-04T04:51:31.761Z,101775.09
2023-02-04T04:56:36.023Z,101800.31
2023-02-04T05:01:39.104Z,101798.66
2023-02-04T05:06:41.976Z,101806.78
2023-02-04T05:11:48.001Z,101818.47
2023-02-04T05:16:50.831Z,101823.25
2023-02-04T05:21:53.636Z,101840.75
2023-02-04T05:26:57.748Z,101826.25
2023-02-04T05:32:00.704Z,101857.88
2023-02-04T05:37:03.477Z,101872.34
2023-02-04T05:42:07.732Z,101874.78
2023-02-04T05:47:10.485Z,101877.63
2023-02-04T05:52:13.292Z,101893.06
2023-02-04T05:57:17.420Z,101910.81
2023-02-04T06:02:20.243Z,101922.59
2023-02-04T06:07:23.043Z,101937.75
2023-02-04T06:12:27.304Z,101959.25
2023-02-04T06:17:30.189Z,101962.13
2023-02-04T06:22:33.074Z,101963.31
2023-02-04T06:27:37.177Z,101977.44
2023-02-04T06:32:39.934Z,101990.09
2023-02-04T06:37:42.720Z,101999.09
2023-02-04T06:42:46.914Z,101996.63
2023-02-04T06:47:49.728Z,102010.91
2023-02-04T06:52:52.467Z,102010.28
2023-02-04T06:57:56.555Z,102013.19
2023-02-04T07:03:00.177Z,102016.00
2023-02-04T07:08:03.208Z,102018.88
2023-02-04T07:13:07.368Z,102030.59
2023-02-04T07:18:10.302Z,102041.50
2023-02-04T07:23:13.055Z,102061.31
2023-02-04T07:28:17.282Z,102069.56
2023-02-04T07:33:20.179Z,102064.28
2023-02-04T07:38:22.987Z,102082.34
2023-02-04T07:43:27.149Z,102092.34
2023-02-04T07:48:30.509Z,102099.69
2023-02-04T07:53:33.298Z,102115.94
2023-02-04T07:58:37.572Z,102126.00
2023-02-04T08:03:41.853Z,102136.78
2023-02-04T08:08:44.725Z,102132.81
2023-02-04T08:13:49.018Z,102129.53
2023-02-04T08:18:51.827Z,102145.91
2023-02-04T08:23:54.589Z,102135.69
2023-02-04T08:28:58.732Z,102141.97
2023-02-04T08:34:01.560Z,102173.69
2023-02-04T08:39:04.342Z,102174.56
2023-02-04T08:44:12.129Z,102185.38
2023-02-04T08:49:15.041Z,102192.38
2023-02-04T08:54:18.005Z,102192.56
2023-02-04T08:59:24.076Z,102199.41
2023-02-04T09:04:28.376Z,102212.81
2023-02-04T09:09:31.214Z,102210.28
2023-02-04T09:14:35.496Z,102219.50
2023-02-04T09:19:38.219Z,102218.16
2023-02-04T09:24:41.013Z,102226.41
2023-02-04T09:29:45.160Z,102224.38
2023-02-04T09:34:47.942Z,102233.00
2023-02-04T09:39:50.699Z,102231.81
2023-02-04T09:44:55.140Z,102238.56
2023-02-04T09:49:57.875Z,102248.31
2023-02-04T09:55:01.189Z,102253.28
2023-02-04T10:00:09.857Z,102255.97
2023-02-04T10:05:14.759Z,102261.19
2023-02-04T10:10:18.408Z,102263.53
2023-02-04T10:15:22.752Z,102272.13
2023-02-04T10:20:25.622Z,102277.28
2023-02-04T10:25:28.373Z,102278.38
2023-02-04T10:30:38.957Z,102284.31
2023-02-04T10:35:46.227Z,102279.66
2023-02-04T10:40:49.092Z,102281.56
2023-02-04T10:45:58.124Z,102299.75
2023-02-04T10:51:00.936Z,102287.75
2023-02-04T10:56:04.142Z,102300.00
2023-02-04T11:01:11.394Z,102303.47
2023-02-04T11:06:15.093Z,102315.22
2023-02-04T11:11:18.318Z,102306.28
2023-02-04T11:16:27.437Z,102306.38
2023-02-04T11:21:41.710Z,102308.06
2023-02-04T11:26:44.660Z,102315.59
2023-02-04T11:31:59.791Z,102313.47
2023-02-04T11:37:13.416Z,102315.00
2023-02-04T11:42:21.167Z,102316.69
2023-02-04T11:47:25.965Z,102319.44
2023-02-04T11:52:28.995Z,102318.44
2023-02-04T11:57:38.593Z,102313.38
2023-02-04T12:02:47.681Z,102320.88
2023-02-04T12:07:50.503Z,102322.84
2023-02-04T12:12:57.821Z,102328.34
2023-02-04T12:18:07.282Z,102318.59
2023-02-04T12:23:10.040Z,102323.28
2023-02-04T12:28:12.878Z,102321.84
2023-02-04T12:33:17.104Z,102334.03
2023-02-04T12:38:20.671Z,102335.78
2023-02-04T12:43:26.098Z,102325.16
2023-02-04T12:48:31.484Z,102328.66
2023-02-04T12:53:34.298Z,102330.53
2023-02-04T12:58:37.146Z,102326.94
2023-02-04T13:03:41.336Z,102333.22
2023-02-04T13:08:44.124Z,102343.13
2023-02-04T13:13:46.925Z,102343.28
2023-02-04T13:18:51.097Z,102350.63
2023-02-04T13:23:53.900Z,102350.31
2023-02-04T13:28:56.675Z,102353.88
2023-02-04T13:34:00.843Z,102360.94
2023-02-04T13:39:03.754Z,102364.69
2023-02-04T13:44:06.739Z,102363.75
2023-02-04T13:49:10.852Z,102357.59
2023-02-04T13:54:13.723Z,102360.66
2023-02-04T13:59:16.506Z,102370.63
2023-02-04T14:04:20.705Z,102376.06
2023-02-04T14:09:25.288Z,102375.13
2023-02-04T14:14:28.140Z,102371.91
2023-02-04T14:19:32.265Z,102381.94
2023-02-04T14:24:35.589Z,102380.22
2023-02-04T14:29:38.358Z,102392.84
2023-02-04T14:34:42.469Z,102386.53
2023-02-04T14:39:45.398Z,102391.69
2023-02-04T14:44:48.280Z,102396.09
2023-02-04T14:49:52.411Z,102391.75
2023-02-04T14:54:55.150Z,102390.88
2023-02-04T14:59:58.133Z,102391.91
2023-02-04T15:05:02.301Z,102383.44
2023-02-04T15:10:05.555Z,102379.34
2023-02-04T15:15:09.117Z,102385.53
2023-02-04T15:20:13.478Z,102387.34
2023-02-04T15:25:17.463Z,102386.63
2023-02-04T15:30:20.546Z,102390.19
2023-02-04T15:35:24.671Z,102401.09
2023-02-04T15:40:29.872Z,102395.72
2023-02-04T15:45:32.773Z,102393.34
2023-02-04T15:50:36.887Z,102403.22
2023-02-04T15:55:39.625Z,102407.22
2023-02-04T16:00:42.423Z,102404.78
2023-02-04T16:05:46.623Z,102414.16
2023-02-04T16:10:49.324Z,102417.00
2023-02-04T16:15:52.207Z,102419.91
2023-02-04T16:20:56.385Z,102413.09
2023-02-04T16:25:59.220Z,102423.66
2023-02-04T16:31:02.089Z,102422.72
2023-02-04T16:36:08.100Z,102430.56
2023-02-04T16:41:11.291Z,102434.88
2023-02-04T16:46:15.998Z,102434.72
2023-02-04T16:51:20.420Z,102433.63
2023-02-04T16:56:23.250Z,102437.25
2023-02-04T17:01:26.014Z,102447.09
2023-02-04T17:06:31.036Z,102445.31
2023-02-04T17:11:33.767Z,102450.69
2023-02-04T17:16:36.546Z,102466.75
2023-02-04T17:21:40.672Z,102468.78
2023-02-04T17:26:43.399Z,102479.97
2023-02-04T17:31:46.379Z,102483.78
2023-02-04T17:36:50.631Z,102476.09
2023-02-04T17:41:53.633Z,102476.38
2023-02-04T17:46:58.521Z,102480.19
2023-02-04T17:52:02.983Z,102488.47
2023-02-04T17:57:15.328Z,102486.28
2023-02-04T18:02:24.407Z,102483.75
2023-02-04T18:07:28.908Z,102482.28
2023-02-04T18:12:31.774Z,102482.53
2023-02-04T18:17:34.570Z,102486.16
2023-02-04T18:22:38.715Z,102486.97
2023-02-04T18:27:41.602Z,102488.44
2023-02-04T18:32:44.410Z,102476.97
2023-02-04T18:37:48.810Z,102480.53
2023-02-04T18:42:51.695Z,102469.78
2023-02-04T18:47:54.933Z,102476.97
2023-02-04T18:53:01.278Z,102484.16
2023-02-04T18:58:20.851Z,102485.94
2023-02-04T19:03:26.107Z,102486.00
2023-02-04T19:08:33.204Z,102495.03
2023-02-04T19:13:39.518Z,102504.88
2023-02-04T19:18:42.904Z,102505.91
2023-02-04T19:23:47.112Z,102501.59
2023-02-04T19:28:51.215Z,102508.78
2023-02-04T19:33:55.362Z,102512.22
2023-02-04T19:39:00.024Z,102511.34
2023-02-04T19:44:36.513Z,102514.09
2023-02-04T19:49:40.801Z,102516.78
2023-02-04T19:54:44.925Z,102515.09
2023-02-04T19:59:47.747Z,102517.78
2023-02-04T20:04:53.959Z,102524.09
2023-02-04T20:10:00.183Z,102540.19
2023-02-04T20:15:03.623Z,102550.75
2023-02-04T20:20:18.734Z,102542.56
2023-02-04T20:25:44.991Z,102548.53
2023-02-04T20:30:48.686Z,102564.50
2023-02-04T20:36:23.956Z,102570.59
2023-02-04T20:41:28.107Z,102574.06
2023-02-04T20:46:31.061Z,102577.53
2023-02-04T20:51:35.045Z,102584.47
2023-02-04T20:56:40.884Z,102585.38
2023-02-04T21:01:44.850Z,102578.06
2023-02-04T21:06:51.650Z,102580.53
2023-02-04T21:11:56.627Z,102576.00
2023-02-04T21:16:59.430Z,102592.84
2023-02-04T21:22:02.293Z,102603.44
2023-02-04T21:27:06.502Z,102608.72
2023-02-04T21:32:09.560Z,102604.38
2023-02-04T21:37:12.549Z,102586.44
2023-02-04T21:42:16.782Z,102601.50
2023-02-04T21:47:19.637Z,102600.50
2023-02-04T21:52:22.491Z,102600.34
2023-02-04T21:57:26.615Z,102608.47
2023-02-04T22:02:29.391Z,102597.53
2023-02-04T22:07:32.306Z,102592.16
2023-02-04T22:12:37.010Z,102601.88
2023-02-04T22:17:39.802Z,102599.28
2023-02-04T22:22:43.341Z,102605.34
2023-02-04T22:27:47.796Z,102604.28
2023-02-04T22:32:50.603Z,102600.84
2023-02-04T22:37:53.416Z,102598.03
2023-02-04T22:42:57.571Z,102607.88
2023-02-04T22:48:00.393Z,102603.34
2023-02-04T22:53:03.186Z,102597.88
2023-02-04T22:58:07.502Z,102595.19
2023-02-04T23:03:10.246Z,102607.53
2023-02-04T23:08:13.050Z,102618.38
2023-02-04T23:13:17.251Z,102615.25
2023-02-04T23:18:20.008Z,102613.28
2023-02-04T23:23:23.013Z,102613.97
2023-02-04T23:28:27.142Z,102608.44
2023-02-04T23:33:29.904Z,102611.97
2023-02-04T23:38:32.743Z,102606.63
2023-02-04T23:43:36.923Z,102616.38
2023-02-04T23:48:39.760Z,102599.38
2023-02-04T23:53:42.504Z,102602.94
2023-02-04T23:58:46.692Z,102603.66
